Sherwood, Michigan
Current Conditions -  °F | °C
As of 5:14 AM on Monday 26 Jan 2015 (Local Time) from KOEB Reporting Station
Clear Clear  
Wind Chill:   Ceiling: Unl
Heat Index:   Visibility: 10mi
Dew Point:   Wind: 3mph
Humidity: 89%   Direction: 40°NE
Pressure: 29.91"   Gusts: NA
Location:  42°N, 85.24°W
Report Text: KOEB 261014Z AUTO 04003KT 10SM CLR M13/M15 A2991 RMK AO2 T11321147
Loading
Personal Weather Stations






























Interactive Weather Map New forecast layout! Learn more

10-Day Weather Forecast

Advertisements
Track Severe Weather on mobile